createdAt,value
2023-02-02T00:01:53.804Z,79.83
2023-02-02T00:04:26.087Z,80.51
2023-02-02T00:06:57.314Z,80.38
2023-02-02T00:09:29.198Z,81.11
2023-02-02T00:11:59.489Z,81.20
2023-02-02T00:14:28.458Z,81.44
2023-02-02T00:16:58.069Z,82.04
2023-02-02T00:19:30.480Z,81.41
2023-02-02T00:21:59.773Z,81.18
2023-02-02T00:24:28.921Z,81.32
2023-02-02T00:27:00.630Z,81.83
2023-02-02T00:29:30.904Z,81.75
2023-02-02T00:32:00.380Z,81.33
2023-02-02T00:34:30.526Z,81.99
2023-02-02T00:36:59.330Z,81.65
2023-02-02T00:39:28.209Z,81.23
2023-02-02T00:41:57.283Z,81.51
2023-02-02T00:44:35.982Z,82.07
2023-02-02T00:47:05.840Z,82.42
2023-02-02T00:49:35.993Z,82.84
2023-02-02T00:52:05.310Z,82.31
2023-02-02T00:54:34.195Z,82.75
2023-02-02T00:57:04.827Z,82.58
2023-02-02T00:59:33.568Z,82.99
2023-02-02T01:02:02.396Z,82.29
2023-02-02T01:04:31.490Z,82.42
2023-02-02T01:07:01.650Z,82.58
2023-02-02T01:09:32.323Z,83.40
2023-02-02T01:12:01.123Z,82.85
2023-02-02T01:14:29.977Z,82.54
2023-02-02T01:16:58.752Z,83.02
2023-02-02T01:19:28.344Z,83.18
2023-02-02T01:21:57.144Z,82.51
2023-02-02T01:24:27.324Z,82.86
2023-02-02T01:26:58.043Z,82.43
2023-02-02T01:29:26.942Z,82.74
2023-02-02T01:31:55.951Z,82.53
2023-02-02T01:34:25.142Z,83.10
2023-02-02T01:36:53.865Z,82.75
2023-02-02T01:39:22.643Z,83.25
2023-02-02T01:41:52.801Z,82.67
2023-02-02T01:44:49.048Z,83.17
2023-02-02T01:47:18.872Z,82.44
2023-02-02T01:49:48.124Z,82.83
2023-02-02T01:52:19.401Z,82.53
2023-02-02T01:54:52.290Z,82.80
2023-02-02T01:57:28.790Z,82.63
2023-02-02T02:00:00.627Z,82.16
2023-02-02T02:02:31.630Z,81.88
2023-02-02T02:05:03.156Z,81.73
2023-02-02T02:07:32.437Z,81.84
2023-02-02T02:10:02.087Z,81.60
2023-02-02T02:12:32.795Z,82.58
2023-02-02T02:15:11.559Z,81.99
2023-02-02T02:18:00.615Z,82.23
2023-02-02T02:21:09.995Z,82.05
2023-02-02T02:24:31.412Z,82.11
2023-02-02T02:27:36.311Z,81.92
2023-02-02T02:30:24.771Z,82.36
2023-02-02T02:33:02.559Z,82.70
2023-02-02T02:35:37.454Z,82.42
2023-02-02T02:38:12.764Z,82.55
2023-02-02T02:40:47.254Z,82.23
2023-02-02T02:43:21.952Z,81.92
2023-02-02T02:45:51.975Z,82.59
2023-02-02T02:48:22.439Z,82.61
2023-02-02T02:50:52.182Z,82.33
2023-02-02T02:53:24.001Z,82.02
2023-02-02T02:56:02.241Z,82.58
2023-02-02T02:58:37.850Z,82.12
2023-02-02T03:01:16.272Z,81.70
2023-02-02T03:04:02.604Z,82.70
2023-02-02T03:06:38.626Z,82.04
2023-02-02T03:09:12.442Z,82.55
2023-02-02T03:11:41.541Z,83.01
2023-02-02T03:14:10.491Z,83.77
2023-02-02T03:16:39.394Z,83.14
2023-02-02T03:19:10.022Z,84.14
2023-02-02T03:21:38.884Z,83.52
2023-02-02T03:24:08.134Z,84.18
2023-02-02T03:26:37.271Z,83.72
2023-02-02T03:29:06.235Z,84.00
2023-02-02T03:31:35.079Z,84.89
2023-02-02T03:34:03.710Z,84.15
2023-02-02T03:36:33.931Z,84.42
2023-02-02T03:39:02.721Z,84.89
2023-02-02T03:41:31.576Z,85.11
2023-02-02T03:44:00.388Z,84.96
2023-02-02T03:46:29.316Z,84.80
2023-02-02T03:48:58.033Z,85.14
2023-02-02T03:51:26.781Z,85.39
2023-02-02T03:53:56.961Z,84.74
2023-02-02T03:56:25.893Z,85.93
2023-02-02T03:58:54.580Z,85.81
2023-02-02T04:01:29.457Z,85.65
2023-02-02T04:03:59.925Z,85.88
2023-02-02T04:06:28.621Z,84.96
2023-02-02T04:08:58.830Z,85.18
2023-02-02T04:11:27.673Z,85.82
2023-02-02T04:13:56.331Z,85.88
2023-02-02T04:16:25.277Z,86.06
2023-02-02T04:18:54.070Z,84.94
2023-02-02T04:21:23.029Z,86.00
2023-02-02T04:23:51.716Z,85.57
2023-02-02T04:26:22.146Z,85.79
2023-02-02T04:28:51.312Z,85.20
2023-02-02T04:31:20.133Z,85.18
2023-02-02T04:33:49.278Z,85.70
2023-02-02T04:36:18.001Z,85.21
2023-02-02T04:38:51.332Z,85.90
2023-02-02T04:41:21.908Z,85.56
2023-02-02T04:43:50.924Z,85.68
2023-02-02T04:46:19.761Z,84.85
2023-02-02T04:48:50.440Z,85.68
2023-02-02T04:51:19.775Z,85.79
2023-02-02T04:53:48.610Z,85.61
2023-02-02T04:56:19.742Z,85.33
2023-02-02T04:58:49.988Z,85.17
2023-02-02T05:01:21.045Z,85.43
2023-02-02T05:03:50.792Z,86.01
2023-02-02T05:06:20.673Z,84.97
2023-02-02T05:08:50.526Z,85.23
2023-02-02T05:11:22.046Z,85.38
2023-02-02T05:13:53.878Z,85.09
2023-02-02T05:16:24.265Z,85.97
2023-02-02T05:18:54.969Z,85.65
2023-02-02T05:21:24.273Z,86.35
2023-02-02T05:23:53.133Z,85.86
2023-02-02T05:26:25.365Z,86.44
2023-02-02T05:28:55.881Z,86.24
2023-02-02T05:31:24.693Z,86.61
2023-02-02T05:33:53.485Z,85.84
2023-02-02T05:36:22.087Z,86.60
2023-02-02T05:38:50.906Z,86.24
2023-02-02T05:41:19.649Z,86.42
2023-02-02T05:43:48.418Z,86.55
2023-02-02T05:46:18.589Z,85.46
2023-02-02T05:48:47.486Z,86.02
2023-02-02T05:51:20.847Z,86.32
2023-02-02T05:53:49.639Z,85.76
2023-02-02T05:56:18.346Z,85.99
2023-02-02T05:58:49.993Z,85.15
2023-02-02T06:01:21.832Z,85.40
2023-02-02T06:03:50.952Z,85.52
2023-02-02T06:06:19.701Z,85.38
2023-02-02T06:08:48.498Z,85.36
2023-02-02T06:11:19.308Z,84.53
2023-02-02T06:13:48.174Z,84.29
2023-02-02T06:16:16.922Z,85.06
2023-02-02T06:18:47.248Z,84.03
2023-02-02T06:21:16.245Z,84.15
2023-02-02T06:23:46.163Z,84.39
2023-02-02T06:26:15.405Z,84.21
2023-02-02T06:28:44.786Z,84.26
2023-02-02T06:31:13.663Z,83.39
2023-02-02T06:33:42.405Z,83.92
2023-02-02T06:36:12.656Z,83.86
2023-02-02T06:38:41.661Z,83.84
2023-02-02T06:41:10.617Z,82.96
2023-02-02T06:43:39.379Z,83.32
2023-02-02T06:46:08.140Z,83.59
2023-02-02T06:48:37.289Z,82.74
2023-02-02T06:51:06.358Z,82.62
2023-02-02T06:53:37.058Z,83.13
2023-02-02T06:56:09.182Z,82.86
2023-02-02T06:58:38.407Z,82.78
2023-02-02T07:01:09.241Z,83.00
2023-02-02T07:03:39.104Z,83.30
2023-02-02T07:06:15.005Z,83.13
2023-02-02T07:08:45.546Z,82.26
2023-02-02T07:11:20.660Z,82.08
2023-02-02T07:13:51.108Z,82.95
2023-02-02T07:16:20.602Z,82.95
2023-02-02T07:18:49.624Z,82.51
2023-02-02T07:21:21.224Z,82.49
2023-02-02T07:23:52.209Z,81.97
2023-02-02T07:26:21.489Z,82.49
2023-02-02T07:28:50.810Z,82.14
2023-02-02T07:31:20.549Z,82.56
2023-02-02T07:33:50.113Z,82.02
2023-02-02T07:36:20.994Z,82.27
2023-02-02T07:38:54.192Z,81.45
2023-02-02T07:41:23.444Z,81.45
2023-02-02T07:43:52.916Z,81.47
2023-02-02T07:46:22.175Z,81.76
2023-02-02T07:48:50.926Z,81.65
2023-02-02T07:51:20.010Z,80.79
2023-02-02T07:53:50.755Z,81.23
2023-02-02T07:56:23.299Z,81.86
2023-02-02T07:58:54.066Z,81.64
2023-02-02T08:01:23.872Z,80.97
2023-02-02T08:03:53.691Z,80.80
2023-02-02T08:06:24.809Z,80.81
2023-02-02T08:08:53.773Z,81.02
2023-02-02T08:11:25.401Z,80.08
2023-02-02T08:13:56.230Z,80.88
2023-02-02T08:16:25.892Z,80.41
2023-02-02T08:18:54.386Z,80.45
2023-02-02T08:21:23.501Z,80.58
2023-02-02T08:23:54.519Z,80.11
2023-02-02T08:26:26.986Z,80.17
2023-02-02T08:28:57.903Z,80.27
2023-02-02T08:31:29.660Z,79.55
2023-02-02T08:33:59.776Z,79.92
2023-02-02T08:36:30.647Z,79.82
2023-02-02T08:39:03.348Z,79.28
2023-02-02T08:41:34.075Z,79.56
2023-02-02T08:44:06.397Z,79.34
2023-02-02T08:46:35.176Z,78.57
2023-02-02T08:49:03.893Z,78.90
2023-02-02T08:51:33.056Z,78.51
2023-02-02T08:54:01.656Z,77.71
2023-02-02T08:56:30.354Z,77.40
2023-02-02T08:59:00.598Z,77.47
2023-02-02T09:01:32.006Z,77.08
2023-02-02T09:04:04.789Z,76.57
2023-02-02T09:06:35.706Z,76.03
2023-02-02T09:09:07.023Z,76.23
2023-02-02T09:11:37.274Z,75.97
2023-02-02T09:14:07.886Z,75.84
2023-02-02T09:16:37.395Z,75.30
2023-02-02T09:19:06.698Z,75.23
2023-02-02T09:21:37.650Z,74.58
2023-02-02T09:24:10.875Z,74.91
2023-02-02T09:26:40.617Z,73.68
2023-02-02T09:29:18.143Z,73.44
2023-02-02T09:31:47.203Z,73.21
2023-02-02T09:34:17.374Z,73.07
2023-02-02T09:36:46.737Z,72.66
2023-02-02T09:39:16.975Z,72.48
2023-02-02T09:42:07.492Z,72.27
2023-02-02T09:44:57.940Z,72.22
2023-02-02T09:47:34.367Z,72.49
2023-02-02T09:50:10.852Z,72.24
2023-02-02T09:52:43.935Z,71.44
2023-02-02T09:55:19.509Z,70.94
2023-02-02T09:57:52.791Z,71.19
2023-02-02T10:00:29.455Z,70.87
2023-02-02T10:03:03.989Z,70.50
2023-02-02T10:05:44.167Z,70.50
2023-02-02T10:08:34.101Z,70.49
2023-02-02T10:11:14.854Z,70.05
2023-02-02T10:13:46.055Z,69.65
2023-02-02T10:16:18.871Z,70.08
2023-02-02T10:18:53.254Z,69.98
2023-02-02T10:21:33.376Z,69.24
2023-02-02T10:24:04.675Z,69.45
2023-02-02T10:26:41.681Z,69.19
2023-02-02T10:29:17.766Z,68.93
2023-02-02T10:32:00.926Z,69.41
2023-02-02T10:34:39.533Z,69.04
2023-02-02T10:37:22.897Z,69.28
2023-02-02T10:40:08.914Z,68.59
2023-02-02T10:43:11.853Z,68.08
2023-02-02T10:45:45.206Z,67.02
2023-02-02T10:48:19.144Z,67.69
2023-02-02T10:50:51.235Z,67.55
2023-02-02T10:53:21.122Z,67.02
2023-02-02T10:55:56.436Z,65.72
2023-02-02T10:58:31.479Z,65.81
2023-02-02T11:01:01.524Z,65.87
2023-02-02T11:03:34.255Z,65.19
2023-02-02T11:06:15.168Z,65.25
2023-02-02T11:08:46.057Z,65.74
2023-02-02T11:11:21.548Z,65.68
2023-02-02T11:13:55.567Z,65.70
2023-02-02T11:16:41.420Z,65.61
2023-02-02T11:19:25.690Z,65.27
2023-02-02T11:21:57.661Z,65.01
2023-02-02T11:24:29.309Z,65.59
2023-02-02T11:27:02.035Z,65.39
2023-02-02T11:29:37.509Z,65.71
2023-02-02T11:32:21.956Z,65.28
2023-02-02T11:35:16.007Z,65.57
2023-02-02T11:38:02.705Z,65.49
2023-02-02T11:40:38.458Z,65.62
2023-02-02T11:43:18.253Z,65.94
2023-02-02T11:45:54.577Z,65.89
2023-02-02T11:48:26.075Z,65.62
2023-02-02T11:50:58.317Z,66.16
2023-02-02T11:53:31.119Z,65.98
2023-02-02T11:56:02.851Z,66.03
2023-02-02T11:58:43.797Z,65.77
2023-02-02T12:01:27.936Z,66.46
2023-02-02T12:03:58.199Z,66.04
2023-02-02T12:06:37.380Z,66.35
2023-02-02T12:09:14.915Z,66.30
2023-02-02T12:11:55.646Z,66.43
2023-02-02T12:14:34.419Z,66.51
2023-02-02T12:17:15.891Z,67.00
2023-02-02T12:20:17.160Z,67.14
2023-02-02T12:23:01.561Z,67.13
2023-02-02T12:25:53.821Z,66.71
2023-02-02T12:28:34.650Z,66.51
2023-02-02T12:31:16.322Z,66.63
2023-02-02T12:33:54.918Z,67.09
2023-02-02T12:36:42.880Z,67.45
2023-02-02T12:39:25.509Z,67.24
2023-02-02T12:42:16.643Z,67.39
2023-02-02T12:44:59.740Z,67.91
2023-02-02T12:47:33.899Z,67.00
2023-02-02T12:50:21.303Z,67.62
2023-02-02T12:53:19.864Z,67.41
2023-02-02T12:55:58.803Z,66.93
2023-02-02T12:58:39.177Z,67.66
2023-02-02T13:01:17.051Z,66.50
2023-02-02T13:04:02.647Z,67.04
2023-02-02T13:06:56.549Z,66.79
2023-02-02T13:09:31.711Z,67.02
2023-02-02T13:12:08.625Z,67.33
2023-02-02T13:14:42.924Z,66.88
2023-02-02T13:17:16.780Z,66.66
2023-02-02T13:19:52.327Z,66.63
2023-02-02T13:22:28.498Z,66.65
2023-02-02T13:25:01.280Z,66.83
2023-02-02T13:27:32.850Z,67.55
2023-02-02T13:30:06.937Z,67.28
2023-02-02T13:32:39.843Z,66.83
2023-02-02T13:35:19.308Z,66.82
2023-02-02T13:37:52.999Z,67.41
2023-02-02T13:40:29.151Z,67.05
2023-02-02T13:43:13.809Z,67.22
2023-02-02T13:45:53.652Z,66.65
2023-02-02T13:48:34.517Z,66.81
2023-02-02T13:51:23.492Z,66.59
2023-02-02T13:54:16.497Z,66.23
2023-02-02T13:56:53.561Z,66.19
2023-02-02T13:59:44.522Z,66.00
2023-02-02T14:02:24.980Z,66.49
2023-02-02T14:04:56.785Z,65.96
2023-02-02T14:07:36.612Z,65.72
2023-02-02T14:10:06.995Z,66.27
2023-02-02T14:12:37.819Z,66.38
2023-02-02T14:15:07.799Z,66.24
2023-02-02T14:18:04.653Z,65.70
2023-02-02T14:20:49.167Z,65.41
2023-02-02T14:23:40.103Z,65.33
2023-02-02T14:26:10.749Z,66.01
2023-02-02T14:28:52.245Z,65.88
2023-02-02T14:31:54.395Z,66.27
2023-02-02T14:34:33.786Z,66.48
2023-02-02T14:37:22.575Z,67.34
2023-02-02T14:39:59.553Z,67.00
2023-02-02T14:42:52.960Z,66.37
2023-02-02T14:45:30.150Z,66.15
2023-02-02T14:48:01.434Z,66.25
2023-02-02T14:50:43.291Z,65.98
2023-02-02T14:53:24.107Z,66.25
2023-02-02T14:55:58.418Z,66.88
2023-02-02T14:58:31.997Z,66.75
2023-02-02T15:01:09.968Z,67.21
2023-02-02T15:03:50.027Z,67.24
2023-02-02T15:06:33.997Z,67.48
2023-02-02T15:09:26.941Z,68.29
2023-02-02T15:12:17.479Z,68.21
2023-02-02T15:14:52.298Z,68.18
2023-02-02T15:17:31.548Z,68.14
2023-02-02T15:20:14.396Z,68.33
2023-02-02T15:22:50.343Z,68.19
2023-02-02T15:25:24.774Z,68.37
2023-02-02T15:28:01.245Z,68.61
2023-02-02T15:30:34.682Z,68.67
2023-02-02T15:33:08.712Z,68.78
2023-02-02T15:35:38.363Z,68.35
2023-02-02T15:38:08.686Z,68.76
2023-02-02T15:40:38.811Z,69.13
2023-02-02T15:43:10.504Z,69.79
2023-02-02T15:45:48.189Z,70.43
2023-02-02T15:48:25.352Z,71.44
2023-02-02T15:50:55.997Z,71.91
2023-02-02T15:53:28.704Z,72.75
2023-02-02T15:55:58.972Z,73.89
2023-02-02T15:58:41.073Z,74.76
2023-02-02T16:01:18.357Z,75.58
2023-02-02T16:03:52.249Z,76.31
2023-02-02T16:06:22.301Z,76.55
2023-02-02T16:08:51.559Z,76.90
2023-02-02T16:11:23.655Z,77.95
2023-02-02T16:14:02.574Z,77.55
2023-02-02T16:16:34.861Z,78.25
2023-02-02T16:19:07.141Z,78.33
2023-02-02T16:21:39.901Z,79.25
2023-02-02T16:24:14.097Z,78.83
2023-02-02T16:26:43.010Z,79.47
2023-02-02T16:29:17.158Z,79.20
2023-02-02T16:31:49.749Z,79.64
2023-02-02T16:34:19.892Z,79.63
2023-02-02T16:37:06.767Z,79.97
2023-02-02T16:39:35.363Z,79.64
2023-02-02T16:42:11.701Z,79.54
2023-02-02T16:44:43.237Z,79.73
2023-02-02T16:47:37.962Z,80.14
2023-02-02T16:50:35.287Z,80.25
2023-02-02T16:53:07.788Z,80.04
2023-02-02T16:55:50.096Z,79.75
2023-02-02T16:58:22.970Z,79.75
2023-02-02T17:01:13.567Z,79.83
2023-02-02T17:03:51.682Z,80.38
2023-02-02T17:06:38.789Z,80.69
2023-02-02T17:09:27.995Z,80.67
2023-02-02T17:11:59.454Z,80.85
2023-02-02T17:14:37.213Z,81.17
2023-02-02T17:17:08.151Z,80.75
2023-02-02T17:19:36.857Z,81.17
2023-02-02T17:22:08.826Z,80.78
2023-02-02T17:24:39.143Z,80.59
2023-02-02T17:27:14.732Z,79.54
2023-02-02T17:29:43.506Z,79.59
2023-02-02T17:32:14.151Z,78.70
2023-02-02T17:34:43.099Z,78.19
2023-02-02T17:37:12.322Z,78.50
2023-02-02T17:39:42.656Z,78.35
2023-02-02T17:42:22.932Z,78.57
2023-02-02T17:44:51.786Z,78.16
2023-02-02T17:47:20.429Z,79.19
2023-02-02T17:49:49.043Z,79.38
2023-02-02T17:52:17.687Z,78.93
2023-02-02T17:54:47.850Z,79.41
2023-02-02T17:57:16.706Z,79.17
2023-02-02T17:59:45.446Z,79.72
2023-02-02T18:02:18.065Z,79.37
2023-02-02T18:04:46.787Z,79.37
2023-02-02T18:07:15.898Z,79.12
2023-02-02T18:09:44.737Z,78.99
2023-02-02T18:12:15.031Z,79.02
2023-02-02T18:14:43.784Z,78.56
2023-02-02T18:17:12.418Z,78.81
2023-02-02T18:19:45.001Z,78.36
2023-02-02T18:22:14.711Z,78.28
2023-02-02T18:24:43.522Z,77.60
2023-02-02T18:27:12.191Z,77.85
2023-02-02T18:29:42.241Z,77.65
2023-02-02T18:32:10.934Z,78.31
2023-02-02T18:34:39.945Z,78.13
2023-02-02T18:37:08.880Z,78.08
2023-02-02T18:39:37.619Z,78.41
2023-02-02T18:42:06.362Z,78.31
2023-02-02T18:44:36.762Z,78.03
2023-02-02T18:47:07.350Z,78.11
2023-02-02T18:49:36.081Z,78.07
2023-02-02T18:52:04.725Z,78.42
2023-02-02T18:54:36.392Z,77.75
2023-02-02T18:57:05.177Z,77.40
2023-02-02T18:59:36.316Z,77.36
2023-02-02T19:02:06.542Z,77.08
2023-02-02T19:04:35.512Z,76.85
2023-02-02T19:07:13.990Z,76.23
2023-02-02T19:09:42.669Z,76.12
2023-02-02T19:12:15.435Z,76.57
2023-02-02T19:14:44.135Z,75.76
2023-02-02T19:17:24.650Z,76.57
2023-02-02T19:19:55.090Z,75.98
2023-02-02T19:22:30.497Z,76.61
2023-02-02T19:24:59.880Z,76.51
2023-02-02T19:27:28.482Z,76.12
2023-02-02T19:30:03.461Z,76.74
2023-02-02T19:32:36.470Z,76.56
2023-02-02T19:35:19.309Z,76.48
2023-02-02T19:37:48.656Z,76.80
2023-02-02T19:40:24.570Z,76.97
2023-02-02T19:42:57.511Z,76.76
2023-02-02T19:45:30.103Z,76.81
2023-02-02T19:48:02.348Z,76.95
2023-02-02T19:50:41.352Z,76.57
2023-02-02T19:53:17.652Z,76.40
2023-02-02T19:55:46.818Z,76.39
2023-02-02T19:58:19.800Z,76.01
2023-02-02T20:00:50.518Z,76.35
2023-02-02T20:03:22.579Z,75.95
2023-02-02T20:05:53.583Z,76.02
2023-02-02T20:08:27.634Z,76.20
2023-02-02T20:11:00.918Z,76.39
2023-02-02T20:13:40.247Z,76.29
2023-02-02T20:16:13.270Z,76.22
2023-02-02T20:18:46.303Z,76.47
2023-02-02T20:21:24.245Z,76.43
2023-02-02T20:23:53.216Z,75.97
2023-02-02T20:26:27.587Z,76.28
2023-02-02T20:28:58.421Z,76.56
2023-02-02T20:31:36.939Z,76.35
2023-02-02T20:34:22.279Z,76.70
2023-02-02T20:36:52.686Z,77.00
2023-02-02T20:39:30.262Z,76.99
2023-02-02T20:41:59.489Z,76.50
2023-02-02T20:44:31.329Z,77.00
2023-02-02T20:47:01.182Z,77.36
2023-02-02T20:49:31.916Z,76.76
2023-02-02T20:52:03.772Z,76.83
2023-02-02T20:54:33.235Z,76.81
2023-02-02T20:57:02.255Z,76.60
2023-02-02T20:59:31.127Z,76.26
2023-02-02T21:02:00.271Z,74.99
2023-02-02T21:04:30.755Z,75.00
2023-02-02T21:07:00.935Z,75.25
2023-02-02T21:09:29.714Z,74.62
2023-02-02T21:11:58.893Z,74.73
2023-02-02T21:14:27.618Z,74.96
2023-02-02T21:17:09.015Z,73.80
2023-02-02T21:19:44.948Z,73.84
2023-02-02T21:22:14.245Z,74.40
2023-02-02T21:24:42.939Z,74.43
2023-02-02T21:27:11.767Z,74.38
2023-02-02T21:29:40.478Z,74.23
2023-02-02T21:32:09.246Z,73.86
2023-02-02T21:34:38.284Z,73.86
2023-02-02T21:37:13.733Z,73.57
2023-02-02T21:39:48.757Z,72.92
2023-02-02T21:42:19.783Z,72.54
2023-02-02T21:44:53.991Z,72.74
2023-02-02T21:47:33.906Z,71.86
2023-02-02T21:50:15.349Z,70.72
2023-02-02T21:52:45.730Z,70.07
2023-02-02T21:55:34.895Z,69.49
2023-02-02T21:58:16.615Z,68.82
2023-02-02T22:00:45.385Z,67.71
2023-02-02T22:03:30.019Z,66.79
2023-02-02T22:06:24.315Z,65.99
2023-02-02T22:09:00.704Z,64.62
2023-02-02T22:11:36.151Z,64.14
2023-02-02T22:14:16.755Z,63.19
2023-02-02T22:16:49.398Z,63.18
2023-02-02T22:19:33.274Z,63.07
2023-02-02T22:22:21.615Z,62.18
2023-02-02T22:24:58.497Z,61.94
2023-02-02T22:27:39.861Z,62.03
2023-02-02T22:30:22.385Z,62.65
2023-02-02T22:32:51.240Z,62.01
2023-02-02T22:35:19.948Z,61.95
2023-02-02T22:37:48.759Z,62.28
2023-02-02T22:40:23.068Z,62.74
2023-02-02T22:42:52.351Z,62.28
2023-02-02T22:45:21.522Z,62.72
2023-02-02T22:47:50.731Z,62.91
2023-02-02T22:50:21.269Z,63.29
2023-02-02T22:52:50.115Z,62.49
2023-02-02T22:55:20.727Z,63.13
2023-02-02T22:57:49.679Z,62.60
2023-02-02T23:00:19.969Z,63.16
2023-02-02T23:02:49.132Z,63.66
2023-02-02T23:05:19.238Z,62.58
2023-02-02T23:07:49.169Z,63.25
2023-02-02T23:10:21.646Z,62.76
2023-02-02T23:12:50.796Z,63.28
2023-02-02T23:15:19.867Z,63.79
2023-02-02T23:17:49.160Z,63.53
2023-02-02T23:20:18.857Z,63.11
2023-02-02T23:22:47.534Z,63.45
2023-02-02T23:25:16.907Z,63.27
2023-02-02T23:27:47.263Z,63.60
2023-02-02T23:30:16.467Z,63.95
2023-02-02T23:32:45.026Z,63.49
2023-02-02T23:35:13.812Z,63.45
2023-02-02T23:37:42.439Z,64.15
2023-02-02T23:40:13.167Z,64.09
2023-02-02T23:42:41.956Z,64.65
2023-02-02T23:45:13.146Z,63.67
2023-02-02T23:47:42.948Z,64.60
2023-02-02T23:50:13.619Z,64.48
2023-02-02T23:52:42.455Z,63.53
2023-02-02T23:55:12.066Z,63.26
2023-02-02T23:57:40.674Z,63.95
